sensor_id;sensor_type;location;lat;lon;timestamp;P1;durP1;ratioP1;P2;durP2;ratioP2
55539;SDS011;41384;51.418;7.286;2022-09-16T00:00:42;2.65;;;0.70;;
55539;SDS011;41384;51.418;7.286;2022-09-16T00:03:09;2.38;;;0.80;;
55539;SDS011;41384;51.418;7.286;2022-09-16T00:05:45;4.13;;;0.75;;
55539;SDS011;41384;51.418;7.286;2022-09-16T00:08:12;2.50;;;0.65;;
55539;SDS011;41384;51.418;7.286;2022-09-16T00:10:38;3.45;;;0.82;;
55539;SDS011;41384;51.418;7.286;2022-09-16T00:13:04;1.83;;;0.85;;
55539;SDS011;41384;51.418;7.286;2022-09-16T00:15:30;1.95;;;0.52;;
55539;SDS011;41384;51.418;7.286;2022-09-16T00:17:55;2.03;;;0.80;;
55539;SDS011;41384;51.418;7.286;2022-09-16T00:20:20;2.35;;;0.60;;
55539;SDS011;41384;51.418;7.286;2022-09-16T00:22:46;2.65;;;0.55;;
55539;SDS011;41384;51.418;7.286;2022-09-16T00:25:11;2.90;;;0.75;;
55539;SDS011;41384;51.418;7.286;2022-09-16T00:27:36;2.65;;;1.00;;
55539;SDS011;41384;51.418;7.286;2022-09-16T00:30:02;1.48;;;0.70;;
55539;SDS011;41384;51.418;7.286;2022-09-16T00:32:28;5.10;;;0.82;;
55539;SDS011;41384;51.418;7.286;2022-09-16T00:34:53;1.88;;;0.52;;
55539;SDS011;41384;51.418;7.286;2022-09-16T00:37:18;2.50;;;1.08;;
55539;SDS011;41384;51.418;7.286;2022-09-16T00:39:46;3.47;;;1.05;;
55539;SDS011;41384;51.418;7.286;2022-09-16T00:42:13;1.95;;;1.02;;
55539;SDS011;41384;51.418;7.286;2022-09-16T00:52:54;3.67;;;0.80;;
55539;SDS011;41384;51.418;7.286;2022-09-16T00:55:22;3.65;;;0.90;;
55539;SDS011;41384;51.418;7.286;2022-09-16T00:57:54;6.97;;;1.20;;
55539;SDS011;41384;51.418;7.286;2022-09-16T01:00:23;1.88;;;0.82;;
55539;SDS011;41384;51.418;7.286;2022-09-16T01:02:49;2.75;;;0.82;;
55539;SDS011;41384;51.418;7.286;2022-09-16T01:05:16;2.20;;;0.85;;
55539;SDS011;41384;51.418;7.286;2022-09-16T01:07:46;1.35;;;0.77;;
55539;SDS011;41384;51.418;7.286;2022-09-16T01:10:14;1.95;;;0.60;;
55539;SDS011;41384;51.418;7.286;2022-09-16T01:12:44;3.47;;;0.80;;
55539;SDS011;41384;51.418;7.286;2022-09-16T01:15:12;4.53;;;0.65;;
55539;SDS011;41384;51.418;7.286;2022-09-16T01:17:42;1.90;;;0.70;;
55539;SDS011;41384;51.418;7.286;2022-09-16T01:22:59;2.67;;;0.90;;
55539;SDS011;41384;51.418;7.286;2022-09-16T01:33:37;3.95;;;1.00;;
55539;SDS011;41384;51.418;7.286;2022-09-16T01:36:21;3.50;;;0.80;;
55539;SDS011;41384;51.418;7.286;2022-09-16T01:39:04;2.72;;;0.80;;
55539;SDS011;41384;51.418;7.286;2022-09-16T01:44:06;3.28;;;0.88;;
55539;SDS011;41384;51.418;7.286;2022-09-16T01:46:44;4.28;;;0.90;;
55539;SDS011;41384;51.418;7.286;2022-09-16T01:52:28;2.97;;;0.68;;
55539;SDS011;41384;51.418;7.286;2022-09-16T01:54:58;3.88;;;0.82;;
55539;SDS011;41384;51.418;7.286;2022-09-16T02:00:04;3.47;;;1.00;;
55539;SDS011;41384;51.418;7.286;2022-09-16T02:05:08;6.03;;;1.15;;
55539;SDS011;41384;51.418;7.286;2022-09-16T02:07:40;2.22;;;0.90;;
55539;SDS011;41384;51.418;7.286;2022-09-16T02:10:16;3.50;;;1.15;;
55539;SDS011;41384;51.418;7.286;2022-09-16T02:12:48;3.92;;;1.00;;
55539;SDS011;41384;51.418;7.286;2022-09-16T02:15:16;5.03;;;1.17;;
55539;SDS011;41384;51.418;7.286;2022-09-16T02:17:47;4.90;;;1.30;;
55539;SDS011;41384;51.418;7.286;2022-09-16T02:20:18;3.60;;;1.10;;
55539;SDS011;41384;51.418;7.286;2022-09-16T02:22:57;9.20;;;1.25;;
55539;SDS011;41384;51.418;7.286;2022-09-16T02:25:27;4.50;;;1.20;;
55539;SDS011;41384;51.418;7.286;2022-09-16T02:27:57;9.13;;;1.30;;
55539;SDS011;41384;51.418;7.286;2022-09-16T02:30:26;5.13;;;1.00;;
55539;SDS011;41384;51.418;7.286;2022-09-16T02:32:57;5.43;;;1.00;;
55539;SDS011;41384;51.418;7.286;2022-09-16T02:35:26;2.22;;;0.77;;
55539;SDS011;41384;51.418;7.286;2022-09-16T02:40:37;4.40;;;1.00;;
55539;SDS011;41384;51.418;7.286;2022-09-16T02:43:08;5.88;;;1.10;;
55539;SDS011;41384;51.418;7.286;2022-09-16T02:45:45;5.95;;;1.00;;
55539;SDS011;41384;51.418;7.286;2022-09-16T02:53:54;4.53;;;1.13;;
55539;SDS011;41384;51.418;7.286;2022-09-16T02:56:31;5.80;;;1.48;;
55539;SDS011;41384;51.418;7.286;2022-09-16T02:58:59;4.03;;;0.90;;
55539;SDS011;41384;51.418;7.286;2022-09-16T03:01:27;4.03;;;0.93;;
55539;SDS011;41384;51.418;7.286;2022-09-16T03:03:54;7.55;;;1.35;;
55539;SDS011;41384;51.418;7.286;2022-09-16T03:06:21;3.50;;;0.90;;
55539;SDS011;41384;51.418;7.286;2022-09-16T03:08:50;3.20;;;1.20;;
55539;SDS011;41384;51.418;7.286;2022-09-16T03:11:31;5.30;;;1.05;;
55539;SDS011;41384;51.418;7.286;2022-09-16T03:19:28;1.27;;;0.77;;
55539;SDS011;41384;51.418;7.286;2022-09-16T03:22:05;2.97;;;1.20;;
55539;SDS011;41384;51.418;7.286;2022-09-16T03:24:53;6.55;;;0.98;;
55539;SDS011;41384;51.418;7.286;2022-09-16T03:27:33;6.15;;;1.00;;
55539;SDS011;41384;51.418;7.286;2022-09-16T03:30:05;1.75;;;0.65;;
55539;SDS011;41384;51.418;7.286;2022-09-16T03:32:43;3.55;;;1.80;;
55539;SDS011;41384;51.418;7.286;2022-09-16T03:35:19;4.93;;;0.68;;
55539;SDS011;41384;51.418;7.286;2022-09-16T03:37:56;2.45;;;0.70;;
55539;SDS011;41384;51.418;7.286;2022-09-16T03:40:23;5.15;;;1.10;;
55539;SDS011;41384;51.418;7.286;2022-09-16T03:42:50;2.13;;;0.70;;
55539;SDS011;41384;51.418;7.286;2022-09-16T03:45:17;2.13;;;0.63;;
55539;SDS011;41384;51.418;7.286;2022-09-16T03:47:44;4.10;;;0.77;;
55539;SDS011;41384;51.418;7.286;2022-09-16T03:50:11;3.08;;;1.00;;
55539;SDS011;41384;51.418;7.286;2022-09-16T03:52:38;5.68;;;0.85;;
55539;SDS011;41384;51.418;7.286;2022-09-16T03:55:04;3.65;;;0.70;;
55539;SDS011;41384;51.418;7.286;2022-09-16T03:57:31;1.30;;;0.70;;
55539;SDS011;41384;51.418;7.286;2022-09-16T03:59:56;4.90;;;1.10;;
55539;SDS011;41384;51.418;7.286;2022-09-16T04:02:22;4.13;;;0.90;;
55539;SDS011;41384;51.418;7.286;2022-09-16T04:04:47;5.60;;;1.30;;
55539;SDS011;41384;51.418;7.286;2022-09-16T04:07:12;4.55;;;1.20;;
55539;SDS011;41384;51.418;7.286;2022-09-16T04:09:37;2.90;;;1.20;;
55539;SDS011;41384;51.418;7.286;2022-09-16T04:12:03;4.75;;;1.23;;
55539;SDS011;41384;51.418;7.286;2022-09-16T04:14:31;3.38;;;1.40;;
55539;SDS011;41384;51.418;7.286;2022-09-16T04:16:57;4.45;;;1.40;;
55539;SDS011;41384;51.418;7.286;2022-09-16T04:19:22;5.25;;;1.40;;
55539;SDS011;41384;51.418;7.286;2022-09-16T04:21:48;4.25;;;1.13;;
55539;SDS011;41384;51.418;7.286;2022-09-16T04:24:13;5.97;;;1.27;;
55539;SDS011;41384;51.418;7.286;2022-09-16T04:26:39;4.60;;;1.40;;
55539;SDS011;41384;51.418;7.286;2022-09-16T04:29:05;6.07;;;1.55;;
55539;SDS011;41384;51.418;7.286;2022-09-16T04:31:30;4.65;;;1.35;;
55539;SDS011;41384;51.418;7.286;2022-09-16T04:33:55;5.65;;;1.45;;
55539;SDS011;41384;51.418;7.286;2022-09-16T04:36:21;4.75;;;1.48;;
55539;SDS011;41384;51.418;7.286;2022-09-16T04:38:46;7.97;;;1.67;;
55539;SDS011;41384;51.418;7.286;2022-09-16T04:41:19;6.22;;;1.88;;
55539;SDS011;41384;51.418;7.286;2022-09-16T04:43:48;3.92;;;1.60;;
55539;SDS011;41384;51.418;7.286;2022-09-16T04:46:16;1.83;;;1.10;;
55539;SDS011;41384;51.418;7.286;2022-09-16T04:48:42;3.83;;;1.40;;
55539;SDS011;41384;51.418;7.286;2022-09-16T04:51:08;6.75;;;1.80;;
55539;SDS011;41384;51.418;7.286;2022-09-16T04:53:36;5.22;;;1.58;;
55539;SDS011;41384;51.418;7.286;2022-09-16T04:56:12;4.50;;;1.20;;
55539;SDS011;41384;51.418;7.286;2022-09-16T04:58:39;4.28;;;1.20;;
55539;SDS011;41384;51.418;7.286;2022-09-16T05:01:07;5.68;;;1.67;;
55539;SDS011;41384;51.418;7.286;2022-09-16T05:03:40;7.45;;;1.73;;
55539;SDS011;41384;51.418;7.286;2022-09-16T05:06:07;4.20;;;1.42;;
55539;SDS011;41384;51.418;7.286;2022-09-16T05:08:35;1.98;;;1.02;;
55539;SDS011;41384;51.418;7.286;2022-09-16T05:11:01;4.82;;;1.10;;
55539;SDS011;41384;51.418;7.286;2022-09-16T05:13:28;3.60;;;1.48;;
55539;SDS011;41384;51.418;7.286;2022-09-16T05:15:53;4.63;;;1.17;;
55539;SDS011;41384;51.418;7.286;2022-09-16T05:18:18;4.70;;;1.02;;
55539;SDS011;41384;51.418;7.286;2022-09-16T05:20:44;3.03;;;1.00;;
55539;SDS011;41384;51.418;7.286;2022-09-16T05:23:09;2.55;;;1.00;;
55539;SDS011;41384;51.418;7.286;2022-09-16T05:25:34;5.40;;;1.20;;
55539;SDS011;41384;51.418;7.286;2022-09-16T05:27:59;2.80;;;1.13;;
55539;SDS011;41384;51.418;7.286;2022-09-16T05:30:25;3.85;;;1.00;;
55539;SDS011;41384;51.418;7.286;2022-09-16T05:32:53;4.72;;;1.20;;
55539;SDS011;41384;51.418;7.286;2022-09-16T05:35:19;4.05;;;1.23;;
55539;SDS011;41384;51.418;7.286;2022-09-16T05:37:44;5.68;;;1.17;;
55539;SDS011;41384;51.418;7.286;2022-09-16T05:40:09;3.72;;;1.08;;
55539;SDS011;41384;51.418;7.286;2022-09-16T05:42:34;4.90;;;1.20;;
55539;SDS011;41384;51.418;7.286;2022-09-16T05:45:00;5.53;;;1.27;;
55539;SDS011;41384;51.418;7.286;2022-09-16T05:47:25;4.13;;;1.08;;
55539;SDS011;41384;51.418;7.286;2022-09-16T05:49:51;4.22;;;1.10;;
55539;SDS011;41384;51.418;7.286;2022-09-16T05:52:18;3.55;;;1.23;;
55539;SDS011;41384;51.418;7.286;2022-09-16T05:54:44;11.45;;;1.52;;
55539;SDS011;41384;51.418;7.286;2022-09-16T05:57:09;7.07;;;1.38;;
55539;SDS011;41384;51.418;7.286;2022-09-16T05:59:34;3.45;;;1.52;;
55539;SDS011;41384;51.418;7.286;2022-09-16T06:01:59;2.90;;;1.30;;
55539;SDS011;41384;51.418;7.286;2022-09-16T06:04:25;8.82;;;1.13;;
55539;SDS011;41384;51.418;7.286;2022-09-16T06:06:50;5.78;;;1.40;;
55539;SDS011;41384;51.418;7.286;2022-09-16T06:09:17;3.47;;;1.25;;
55539;SDS011;41384;51.418;7.286;2022-09-16T06:11:47;6.78;;;1.60;;
55539;SDS011;41384;51.418;7.286;2022-09-16T06:14:14;4.95;;;1.60;;
55539;SDS011;41384;51.418;7.286;2022-09-16T06:16:40;4.82;;;1.50;;
55539;SDS011;41384;51.418;7.286;2022-09-16T06:19:07;4.95;;;1.38;;
55539;SDS011;41384;51.418;7.286;2022-09-16T06:21:35;3.53;;;1.40;;
55539;SDS011;41384;51.418;7.286;2022-09-16T06:24:02;5.50;;;1.67;;
55539;SDS011;41384;51.418;7.286;2022-09-16T06:26:28;3.58;;;1.20;;
55539;SDS011;41384;51.418;7.286;2022-09-16T06:28:53;4.20;;;1.58;;
55539;SDS011;41384;51.418;7.286;2022-09-16T06:31:20;3.28;;;1.67;;
55539;SDS011;41384;51.418;7.286;2022-09-16T06:33:47;6.07;;;1.38;;
55539;SDS011;41384;51.418;7.286;2022-09-16T06:36:17;5.38;;;1.40;;
55539;SDS011;41384;51.418;7.286;2022-09-16T06:38:56;4.75;;;1.20;;
55539;SDS011;41384;51.418;7.286;2022-09-16T06:41:22;6.07;;;1.73;;
55539;SDS011;41384;51.418;7.286;2022-09-16T06:43:48;3.72;;;1.30;;
55539;SDS011;41384;51.418;7.286;2022-09-16T06:46:18;4.18;;;1.52;;
55539;SDS011;41384;51.418;7.286;2022-09-16T06:48:47;4.40;;;1.23;;
55539;SDS011;41384;51.418;7.286;2022-09-16T06:51:16;4.65;;;1.48;;
55539;SDS011;41384;51.418;7.286;2022-09-16T06:53:42;3.63;;;1.25;;
55539;SDS011;41384;51.418;7.286;2022-09-16T06:56:10;10.20;;;1.48;;
55539;SDS011;41384;51.418;7.286;2022-09-16T06:58:37;4.30;;;1.48;;
55539;SDS011;41384;51.418;7.286;2022-09-16T07:01:11;8.30;;;1.73;;
55539;SDS011;41384;51.418;7.286;2022-09-16T07:03:41;2.78;;;1.20;;
55539;SDS011;41384;51.418;7.286;2022-09-16T07:06:08;7.63;;;1.80;;
55539;SDS011;41384;51.418;7.286;2022-09-16T07:08:35;4.10;;;1.48;;
55539;SDS011;41384;51.418;7.286;2022-09-16T07:11:03;2.72;;;1.50;;
55539;SDS011;41384;51.418;7.286;2022-09-16T07:13:29;5.40;;;1.48;;
55539;SDS011;41384;51.418;7.286;2022-09-16T07:16:01;4.63;;;1.60;;
55539;SDS011;41384;51.418;7.286;2022-09-16T07:18:28;3.53;;;1.40;;
55539;SDS011;41384;51.418;7.286;2022-09-16T07:21:07;5.28;;;1.63;;
55539;SDS011;41384;51.418;7.286;2022-09-16T07:23:35;3.60;;;1.50;;
55539;SDS011;41384;51.418;7.286;2022-09-16T07:26:05;5.10;;;1.98;;
55539;SDS011;41384;51.418;7.286;2022-09-16T07:28:39;4.82;;;2.00;;
55539;SDS011;41384;51.418;7.286;2022-09-16T07:31:08;7.07;;;2.55;;
55539;SDS011;41384;51.418;7.286;2022-09-16T07:33:35;6.13;;;2.33;;
55539;SDS011;41384;51.418;7.286;2022-09-16T07:36:05;5.40;;;2.53;;
55539;SDS011;41384;51.418;7.286;2022-09-16T07:38:31;6.25;;;2.22;;
55539;SDS011;41384;51.418;7.286;2022-09-16T07:41:04;5.90;;;2.20;;
55539;SDS011;41384;51.418;7.286;2022-09-16T07:43:30;5.68;;;2.17;;
55539;SDS011;41384;51.418;7.286;2022-09-16T07:45:56;6.80;;;2.30;;
55539;SDS011;41384;51.418;7.286;2022-09-16T07:48:22;5.25;;;2.63;;
55539;SDS011;41384;51.418;7.286;2022-09-16T07:50:54;7.75;;;2.90;;
55539;SDS011;41384;51.418;7.286;2022-09-16T07:55:46;4.70;;;2.80;;
55539;SDS011;41384;51.418;7.286;2022-09-16T07:58:11;3.47;;;2.55;;
55539;SDS011;41384;51.418;7.286;2022-09-16T08:00:36;7.03;;;2.90;;
55539;SDS011;41384;51.418;7.286;2022-09-16T08:03:02;7.68;;;3.33;;
55539;SDS011;41384;51.418;7.286;2022-09-16T08:05:28;7.75;;;2.92;;
55539;SDS011;41384;51.418;7.286;2022-09-16T08:07:53;4.05;;;3.05;;
55539;SDS011;41384;51.418;7.286;2022-09-16T08:10:18;8.85;;;3.15;;
55539;SDS011;41384;51.418;7.286;2022-09-16T08:12:47;5.80;;;2.95;;
55539;SDS011;41384;51.418;7.286;2022-09-16T08:15:12;6.68;;;3.08;;
55539;SDS011;41384;51.418;7.286;2022-09-16T08:17:38;5.70;;;2.72;;
55539;SDS011;41384;51.418;7.286;2022-09-16T08:20:03;6.40;;;2.50;;
55539;SDS011;41384;51.418;7.286;2022-09-16T08:22:31;5.80;;;2.53;;
55539;SDS011;41384;51.418;7.286;2022-09-16T08:24:56;6.75;;;3.45;;
55539;SDS011;41384;51.418;7.286;2022-09-16T08:27:21;6.43;;;3.42;;
55539;SDS011;41384;51.418;7.286;2022-09-16T08:29:47;3.13;;;2.50;;
55539;SDS011;41384;51.418;7.286;2022-09-16T08:32:12;5.10;;;3.03;;
55539;SDS011;41384;51.418;7.286;2022-09-16T08:34:38;5.57;;;2.80;;
55539;SDS011;41384;51.418;7.286;2022-09-16T08:37:04;5.60;;;3.25;;
55539;SDS011;41384;51.418;7.286;2022-09-16T08:39:29;7.13;;;2.90;;
55539;SDS011;41384;51.418;7.286;2022-09-16T08:42:04;4.78;;;2.70;;
55539;SDS011;41384;51.418;7.286;2022-09-16T08:50:17;5.85;;;1.83;;
55539;SDS011;41384;51.418;7.286;2022-09-16T08:52:49;5.93;;;1.60;;
55539;SDS011;41384;51.418;7.286;2022-09-16T08:55:24;3.50;;;1.50;;
55539;SDS011;41384;51.418;7.286;2022-09-16T08:58:04;5.63;;;1.45;;
55539;SDS011;41384;51.418;7.286;2022-09-16T09:00:37;3.72;;;1.25;;
55539;SDS011;41384;51.418;7.286;2022-09-16T09:03:06;4.32;;;1.33;;
55539;SDS011;41384;51.418;7.286;2022-09-16T09:05:50;3.47;;;1.40;;
55539;SDS011;41384;51.418;7.286;2022-09-16T09:11:04;6.15;;;1.83;;
55539;SDS011;41384;51.418;7.286;2022-09-16T09:13:53;3.33;;;1.17;;
55539;SDS011;41384;51.418;7.286;2022-09-16T09:27:37;3.88;;;1.20;;
55539;SDS011;41384;51.418;7.286;2022-09-16T09:30:22;2.45;;;1.02;;
55539;SDS011;41384;51.418;7.286;2022-09-16T09:38:04;3.53;;;2.25;;
55539;SDS011;41384;51.418;7.286;2022-09-16T09:40:46;3.40;;;2.30;;
55539;SDS011;41384;51.418;7.286;2022-09-16T09:46:00;6.45;;;2.10;;
55539;SDS011;41384;51.418;7.286;2022-09-16T09:48:37;4.05;;;2.13;;
55539;SDS011;41384;51.418;7.286;2022-09-16T09:51:28;2.25;;;1.15;;
55539;SDS011;41384;51.418;7.286;2022-09-16T09:54:02;3.97;;;1.83;;
55539;SDS011;41384;51.418;7.286;2022-09-16T09:56:42;4.57;;;1.60;;
55539;SDS011;41384;51.418;7.286;2022-09-16T10:01:34;3.43;;;1.33;;
55539;SDS011;41384;51.418;7.286;2022-09-16T10:03:59;5.05;;;0.93;;
55539;SDS011;41384;51.418;7.286;2022-09-16T10:06:27;3.50;;;1.05;;
55539;SDS011;41384;51.418;7.286;2022-09-16T10:08:57;2.70;;;0.90;;
55539;SDS011;41384;51.418;7.286;2022-09-16T10:11:25;4.93;;;0.95;;
55539;SDS011;41384;51.418;7.286;2022-09-16T10:13:54;2.72;;;1.08;;
55539;SDS011;41384;51.418;7.286;2022-09-16T10:16:25;3.03;;;1.23;;
55539;SDS011;41384;51.418;7.286;2022-09-16T10:19:00;4.40;;;1.57;;
55539;SDS011;41384;51.418;7.286;2022-09-16T10:21:39;4.53;;;1.50;;
55539;SDS011;41384;51.418;7.286;2022-09-16T10:26:59;3.00;;;1.35;;
55539;SDS011;41384;51.418;7.286;2022-09-16T10:29:25;3.45;;;1.10;;
55539;SDS011;41384;51.418;7.286;2022-09-16T10:31:51;2.75;;;0.90;;
55539;SDS011;41384;51.418;7.286;2022-09-16T10:34:18;2.25;;;0.98;;
55539;SDS011;41384;51.418;7.286;2022-09-16T10:36:45;2.40;;;0.73;;
55539;SDS011;41384;51.418;7.286;2022-09-16T10:39:20;4.70;;;1.00;;
55539;SDS011;41384;51.418;7.286;2022-09-16T10:41:48;3.67;;;0.98;;
55539;SDS011;41384;51.418;7.286;2022-09-16T10:46:49;3.13;;;0.60;;
55539;SDS011;41384;51.418;7.286;2022-09-16T10:49:23;3.42;;;0.80;;
55539;SDS011;41384;51.418;7.286;2022-09-16T10:51:53;1.63;;;0.57;;
55539;SDS011;41384;51.418;7.286;2022-09-16T10:54:25;3.25;;;1.00;;
55539;SDS011;41384;51.418;7.286;2022-09-16T10:56:52;1.88;;;0.70;;
55539;SDS011;41384;51.418;7.286;2022-09-16T10:59:18;3.58;;;1.10;;
55539;SDS011;41384;51.418;7.286;2022-09-16T11:01:55;1.20;;;0.60;;
55539;SDS011;41384;51.418;7.286;2022-09-16T11:07:20;2.55;;;0.80;;
55539;SDS011;41384;51.418;7.286;2022-09-16T11:12:21;2.28;;;0.70;;
55539;SDS011;41384;51.418;7.286;2022-09-16T11:15:15;4.55;;;0.68;;
55539;SDS011;41384;51.418;7.286;2022-09-16T11:23:05;2.57;;;0.90;;
55539;SDS011;41384;51.418;7.286;2022-09-16T11:39:21;1.60;;;0.80;;
55539;SDS011;41384;51.418;7.286;2022-09-16T11:42:01;2.67;;;0.90;;
55539;SDS011;41384;51.418;7.286;2022-09-16T11:44:47;2.22;;;0.77;;
55539;SDS011;41384;51.418;7.286;2022-09-16T11:47:52;4.65;;;0.70;;
55539;SDS011;41384;51.418;7.286;2022-09-16T11:50:28;2.88;;;0.90;;
55539;SDS011;41384;51.418;7.286;2022-09-16T11:53:08;2.15;;;0.80;;
55539;SDS011;41384;51.418;7.286;2022-09-16T12:01:02;2.22;;;0.82;;
55539;SDS011;41384;51.418;7.286;2022-09-16T12:04:01;2.83;;;0.77;;
55539;SDS011;41384;51.418;7.286;2022-09-16T12:06:35;0.45;;;0.30;;
55539;SDS011;41384;51.418;7.286;2022-09-16T12:09:11;4.18;;;0.90;;
55539;SDS011;41384;51.418;7.286;2022-09-16T12:11:49;5.30;;;1.02;;
55539;SDS011;41384;51.418;7.286;2022-09-16T12:14:19;1.80;;;0.47;;
55539;SDS011;41384;51.418;7.286;2022-09-16T12:16:53;2.60;;;0.70;;
55539;SDS011;41384;51.418;7.286;2022-09-16T12:19:24;1.95;;;0.50;;
55539;SDS011;41384;51.418;7.286;2022-09-16T12:24:56;2.67;;;0.50;;
55539;SDS011;41384;51.418;7.286;2022-09-16T12:27:31;0.82;;;0.52;;
55539;SDS011;41384;51.418;7.286;2022-09-16T12:30:04;0.88;;;0.35;;
55539;SDS011;41384;51.418;7.286;2022-09-16T12:35:55;1.30;;;0.30;;
55539;SDS011;41384;51.418;7.286;2022-09-16T12:38:24;1.02;;;0.30;;
55539;SDS011;41384;51.418;7.286;2022-09-16T12:52:09;1.35;;;0.40;;
55539;SDS011;41384;51.418;7.286;2022-09-16T12:54:27;0.85;;;0.38;;
55539;SDS011;41384;51.418;7.286;2022-09-16T13:02:44;0.60;;;0.30;;
55539;SDS011;41384;51.418;7.286;2022-09-16T13:05:18;0.73;;;0.40;;
55539;SDS011;41384;51.418;7.286;2022-09-16T13:07:59;1.58;;;0.65;;
55539;SDS011;41384;51.418;7.286;2022-09-16T13:10:38;1.52;;;0.50;;
55539;SDS011;41384;51.418;7.286;2022-09-16T13:13:06;1.08;;;0.30;;
55539;SDS011;41384;51.418;7.286;2022-09-16T13:15:35;2.17;;;0.52;;
55539;SDS011;41384;51.418;7.286;2022-09-16T13:20:40;0.80;;;0.40;;
55539;SDS011;41384;51.418;7.286;2022-09-16T13:23:18;6.25;;;0.70;;
55539;SDS011;41384;51.418;7.286;2022-09-16T13:25:49;1.95;;;0.80;;
55539;SDS011;41384;51.418;7.286;2022-09-16T13:33:36;4.78;;;0.80;;
55539;SDS011;41384;51.418;7.286;2022-09-16T13:36:12;1.75;;;0.60;;
55539;SDS011;41384;51.418;7.286;2022-09-16T13:38:40;1.50;;;0.50;;
55539;SDS011;41384;51.418;7.286;2022-09-16T13:41:08;3.78;;;0.77;;
55539;SDS011;41384;51.418;7.286;2022-09-16T13:43:48;5.03;;;0.90;;
55539;SDS011;41384;51.418;7.286;2022-09-16T13:46:29;1.70;;;0.50;;
55539;SDS011;41384;51.418;7.286;2022-09-16T13:51:38;2.22;;;0.60;;
55539;SDS011;41384;51.418;7.286;2022-09-16T14:14:02;0.90;;;0.50;;
55539;SDS011;41384;51.418;7.286;2022-09-16T14:16:32;2.05;;;1.52;;
55539;SDS011;41384;51.418;7.286;2022-09-16T14:21:43;2.05;;;0.90;;
55539;SDS011;41384;51.418;7.286;2022-09-16T14:26:53;2.70;;;1.60;;
55539;SDS011;41384;51.418;7.286;2022-09-16T14:29:22;2.15;;;1.20;;
55539;SDS011;41384;51.418;7.286;2022-09-16T14:31:48;1.60;;;0.80;;
55539;SDS011;41384;51.418;7.286;2022-09-16T14:34:22;2.55;;;1.10;;
55539;SDS011;41384;51.418;7.286;2022-09-16T14:36:52;2.63;;;1.27;;
55539;SDS011;41384;51.418;7.286;2022-09-16T14:39:18;2.05;;;0.82;;
55539;SDS011;41384;51.418;7.286;2022-09-16T14:41:48;3.90;;;2.00;;
55539;SDS011;41384;51.418;7.286;2022-09-16T14:46:58;8.23;;;3.83;;
55539;SDS011;41384;51.418;7.286;2022-09-16T14:49:42;3.03;;;0.95;;
55539;SDS011;41384;51.418;7.286;2022-09-16T14:52:18;4.95;;;2.42;;
55539;SDS011;41384;51.418;7.286;2022-09-16T14:54:45;3.85;;;1.33;;
55539;SDS011;41384;51.418;7.286;2022-09-16T14:57:15;4.60;;;1.92;;
55539;SDS011;41384;51.418;7.286;2022-09-16T14:59:44;3.97;;;1.33;;
55539;SDS011;41384;51.418;7.286;2022-09-16T15:04:38;4.00;;;1.48;;
55539;SDS011;41384;51.418;7.286;2022-09-16T15:07:07;5.50;;;1.23;;
55539;SDS011;41384;51.418;7.286;2022-09-16T15:12:12;1.90;;;0.80;;
55539;SDS011;41384;51.418;7.286;2022-09-16T15:14:43;3.88;;;1.10;;
55539;SDS011;41384;51.418;7.286;2022-09-16T15:17:09;3.05;;;1.20;;
55539;SDS011;41384;51.418;7.286;2022-09-16T15:19:43;2.75;;;1.13;;
55539;SDS011;41384;51.418;7.286;2022-09-16T15:22:15;2.58;;;0.90;;
55539;SDS011;41384;51.418;7.286;2022-09-16T15:24:40;2.28;;;0.80;;
55539;SDS011;41384;51.418;7.286;2022-09-16T15:27:06;1.92;;;0.75;;
55539;SDS011;41384;51.418;7.286;2022-09-16T15:29:34;1.42;;;0.65;;
55539;SDS011;41384;51.418;7.286;2022-09-16T15:32:13;2.65;;;0.80;;
55539;SDS011;41384;51.418;7.286;2022-09-16T15:34:40;4.22;;;0.80;;
55539;SDS011;41384;51.418;7.286;2022-09-16T15:37:26;0.50;;;0.50;;
55539;SDS011;41384;51.418;7.286;2022-09-16T15:40:09;0.85;;;0.50;;
55539;SDS011;41384;51.418;7.286;2022-09-16T15:42:59;2.05;;;0.65;;
55539;SDS011;41384;51.418;7.286;2022-09-16T15:45:27;3.10;;;0.50;;
55539;SDS011;41384;51.418;7.286;2022-09-16T15:47:54;2.33;;;0.55;;
55539;SDS011;41384;51.418;7.286;2022-09-16T15:50:22;2.85;;;0.95;;
55539;SDS011;41384;51.418;7.286;2022-09-16T15:52:52;2.35;;;0.60;;
55539;SDS011;41384;51.418;7.286;2022-09-16T15:55:39;4.07;;;0.65;;
55539;SDS011;41384;51.418;7.286;2022-09-16T15:58:12;2.20;;;1.23;;
55539;SDS011;41384;51.418;7.286;2022-09-16T16:03:27;2.80;;;0.80;;
55539;SDS011;41384;51.418;7.286;2022-09-16T16:06:01;1.92;;;1.00;;
55539;SDS011;41384;51.418;7.286;2022-09-16T16:08:39;1.83;;;0.60;;
55539;SDS011;41384;51.418;7.286;2022-09-16T16:11:12;2.20;;;0.68;;
55539;SDS011;41384;51.418;7.286;2022-09-16T16:13:39;3.17;;;0.80;;
55539;SDS011;41384;51.418;7.286;2022-09-16T16:16:05;6.22;;;1.35;;
55539;SDS011;41384;51.418;7.286;2022-09-16T16:18:32;1.83;;;0.65;;
55539;SDS011;41384;51.418;7.286;2022-09-16T16:20:59;3.58;;;0.50;;
55539;SDS011;41384;51.418;7.286;2022-09-16T16:23:36;2.38;;;0.50;;
55539;SDS011;41384;51.418;7.286;2022-09-16T16:26:02;4.10;;;0.85;;
55539;SDS011;41384;51.418;7.286;2022-09-16T16:28:29;4.05;;;0.88;;
55539;SDS011;41384;51.418;7.286;2022-09-16T16:31:05;3.85;;;0.95;;
55539;SDS011;41384;51.418;7.286;2022-09-16T16:33:42;2.08;;;0.80;;
55539;SDS011;41384;51.418;7.286;2022-09-16T16:36:09;2.20;;;0.60;;
55539;SDS011;41384;51.418;7.286;2022-09-16T16:38:35;3.80;;;1.00;;
55539;SDS011;41384;51.418;7.286;2022-09-16T16:41:01;3.10;;;0.80;;
55539;SDS011;41384;51.418;7.286;2022-09-16T16:43:27;2.53;;;0.73;;
55539;SDS011;41384;51.418;7.286;2022-09-16T16:45:55;2.92;;;0.82;;
55539;SDS011;41384;51.418;7.286;2022-09-16T16:48:22;3.10;;;0.88;;
55539;SDS011;41384;51.418;7.286;2022-09-16T16:51:21;2.58;;;0.70;;
55539;SDS011;41384;51.418;7.286;2022-09-16T16:53:39;1.95;;;0.55;;
55539;SDS011;41384;51.418;7.286;2022-09-16T16:56:08;3.53;;;0.70;;
55539;SDS011;41384;51.418;7.286;2022-09-16T16:58:36;4.38;;;1.08;;
55539;SDS011;41384;51.418;7.286;2022-09-16T17:01:10;4.75;;;0.85;;
55539;SDS011;41384;51.418;7.286;2022-09-16T17:03:37;3.03;;;0.98;;
55539;SDS011;41384;51.418;7.286;2022-09-16T17:06:04;2.72;;;0.70;;
55539;SDS011;41384;51.418;7.286;2022-09-16T17:08:31;2.28;;;0.70;;
55539;SDS011;41384;51.418;7.286;2022-09-16T17:11:04;3.10;;;0.80;;
55539;SDS011;41384;51.418;7.286;2022-09-16T17:13:29;2.88;;;0.93;;
55539;SDS011;41384;51.418;7.286;2022-09-16T17:15:55;2.00;;;0.70;;
55539;SDS011;41384;51.418;7.286;2022-09-16T17:18:21;4.32;;;1.00;;
55539;SDS011;41384;51.418;7.286;2022-09-16T17:20:46;2.35;;;0.73;;
55539;SDS011;41384;51.418;7.286;2022-09-16T17:23:11;4.38;;;0.80;;
55539;SDS011;41384;51.418;7.286;2022-09-16T17:25:36;4.22;;;0.82;;
55539;SDS011;41384;51.418;7.286;2022-09-16T17:28:02;6.68;;;1.10;;
55539;SDS011;41384;51.418;7.286;2022-09-16T17:30:27;2.97;;;0.95;;
55539;SDS011;41384;51.418;7.286;2022-09-16T17:32:52;4.72;;;0.93;;
55539;SDS011;41384;51.418;7.286;2022-09-16T17:35:17;3.78;;;1.25;;
55539;SDS011;41384;51.418;7.286;2022-09-16T17:37:43;3.67;;;1.13;;
55539;SDS011;41384;51.418;7.286;2022-09-16T17:40:08;2.60;;;1.25;;
55539;SDS011;41384;51.418;7.286;2022-09-16T17:42:34;3.70;;;1.00;;
55539;SDS011;41384;51.418;7.286;2022-09-16T17:44:59;2.78;;;1.00;;
55539;SDS011;41384;51.418;7.286;2022-09-16T17:47:30;3.05;;;1.05;;
55539;SDS011;41384;51.418;7.286;2022-09-16T17:49:55;2.38;;;1.05;;
55539;SDS011;41384;51.418;7.286;2022-09-16T17:52:23;2.75;;;1.00;;
55539;SDS011;41384;51.418;7.286;2022-09-16T17:54:48;4.47;;;1.00;;
55539;SDS011;41384;51.418;7.286;2022-09-16T17:57:14;5.93;;;1.00;;
55539;SDS011;41384;51.418;7.286;2022-09-16T17:59:39;3.20;;;0.98;;
55539;SDS011;41384;51.418;7.286;2022-09-16T18:02:04;4.28;;;1.30;;
55539;SDS011;41384;51.418;7.286;2022-09-16T18:04:30;2.10;;;0.80;;